首页
METAR-TAF:

METAR-TAF

机场 :

巴尼亚卢卡, 波斯尼亚和黑塞哥维那

纬度: 44-47N, 经度: 017-13E, 海拔: 156米

当前天气观测

该预报发布于17分钟前的20:30 UTC
风速2节,风向多变
温度 22°C
湿度 78%
气压 1018 hPa
能见度10公里或以上
1500米以下无云,无积雨云

METAR: LQBK 232030Z VRB02KT CAVOK 22/18 Q1018 NOSIG

时间: 22:47 (20:47 UTC)

预报

该预报发布于3小时和47分钟前的17:00 UTC
预报有效从23日的 18点(UTC)到 24日的 18点(UTC)
风速5节,风向东转东北
能见度10公里或以上
1500米以下无云,无积雨云

TAF: LQBK 231700Z 2318/2418 06005KT CAVOK TX32/2414Z TN17/2403Z

超过4000个机场的气象观测和天气预报(METAR&TAF报告)。

可查询的气象台以黄色和红色小点在地图上表示。

将鼠标移到小点上方,可查看气象台名称。

然后点击查看天气观测和预报。

如需切换地图:点击带黑十字的绿色按钮放大地图;点击带横线的绿色按钮缩小地图;或者点击绿色箭头查看邻近地区的地图。


METAR-TAF: